Time;durP1;ratioP1;P1;durP2;ratioP2;P2;SDS_P1;SDS_P2;PMS_P1;PMS_P2;Temp;Humidity;BMP_temperature;BMP_pressure;BME280_temperature;BME280_humidity;BME280_pressure;Samples;Min_cycle;Max_cycle;Signal;HPM_P1;HPM_P2
2022/05/10 00:00:03;;;;;;;6.97;3.20;;;;;;;15.36;55.63;101188.03;124434;1100;102506;-77
2022/05/10 00:03:07;;;;;;;5.83;2.90;;;;;;;15.31;55.65;101185.27;124605;1099;104232;-78
2022/05/10 00:05:42;;;;;;;7.15;2.90;;;;;;;15.26;55.39;101190.42;124267;1099;101921;-78
2022/05/10 00:08:17;;;;;;;8.20;3.27;;;;;;;15.23;55.29;101192.98;124270;1102;102972;-77
2022/05/10 00:10:49;;;;;;;5.83;2.60;;;;;;;15.22;55.47;101190.30;124216;1099;102867;-77
2022/05/10 00:13:21;;;;;;;7.30;3.40;;;;;;;15.18;55.36;101193.73;124489;1099;104060;-77
2022/05/10 00:15:53;;;;;;;6.70;3.77;;;;;;;15.17;54.53;101191.92;124362;1102;104195;-77
2022/05/10 00:18:29;;;;;;;5.70;3.20;;;;;;;15.16;54.32;101192.77;124404;1100;103311;-78
2022/05/10 00:21:00;;;;;;;5.80;3.35;;;;;;;15.13;54.57;101198.89;124798;1099;104367;-78
2022/05/10 00:23:34;;;;;;;6.17;3.40;;;;;;;15.13;54.69;101197.97;124571;1098;104159;-78
2022/05/10 00:26:07;;;;;;;8.17;3.37;;;;;;;15.10;53.89;101196.16;124237;1102;104740;-78
2022/05/10 00:28:38;;;;;;;6.27;3.50;;;;;;;15.10;54.23;101196.16;124320;1099;104332;-78
2022/05/10 00:31:12;;;;;;;8.90;3.50;;;;;;;15.07;53.65;101193.42;124281;1099;104312;-77
2022/05/10 00:33:43;;;;;;;5.90;3.35;;;;;;;15.05;53.38;101196.03;124360;1099;104259;-77
2022/05/10 00:36:18;;;;;;;9.00;3.20;;;;;;;14.97;53.79;101194.00;124779;1099;102035;-77
2022/05/10 00:38:50;;;;;;;6.10;3.53;;;;;;;14.94;54.01;101191.27;124732;1099;104323;-77
2022/05/10 00:41:29;;;;;;;8.17;3.60;;;;;;;14.90;54.15;101195.58;124793;1098;104249;-77
2022/05/10 00:44:08;;;;;;;5.43;3.50;;;;;;;14.89;54.17;101197.30;124637;1099;102264;-77
2022/05/10 00:46:44;;;;;;;7.63;3.43;;;;;;;14.85;54.07;101190.16;124357;1099;104275;-77
2022/05/10 00:49:24;;;;;;;10.40;3.83;;;;;;;14.82;54.04;101190.07;124290;1099;104166;-76
2022/05/10 00:52:03;;;;;;;6.73;3.63;;;;;;;14.79;53.46;101189.06;124277;1099;102463;-77
2022/05/10 00:54:42;;;;;;;9.23;3.60;;;;;;;14.74;54.02;101189.84;124515;1099;104160;-77
2022/05/10 00:57:27;;;;;;;8.20;3.73;;;;;;;14.72;52.85;101193.28;124881;1098;104794;-77
2022/05/10 00:59:59;;;;;;;;;;;;;;;14.64;52.96;101200.09;124861;1099;104265;-77
2022/05/10 01:02:40;;;;;;;5.70;3.60;;;;;;;14.60;53.00;101190.23;124368;1102;102996;-77
2022/05/10 01:05:19;;;;;;;33.60;6.00;;;;;;;14.55;53.66;101190.09;124260;1099;104232;-77
2022/05/10 01:07:56;;;;;;;17.97;5.20;;;;;;;14.54;53.56;101188.32;124292;1099;102767;-75
2022/05/10 01:10:38;;;;;;;19.97;4.47;;;;;;;14.54;53.64;101188.32;124357;1099;104271;-75
2022/05/10 01:13:23;;;;;;;32.67;5.73;;;;;;;14.52;52.89;101192.64;124355;1099;104179;-75
2022/05/10 01:16:02;;;;;;;16.53;4.77;;;;;;;14.44;53.18;101187.13;124376;1102;104364;-75
2022/05/10 01:18:35;;;;;;;14.17;4.00;;;;;;;14.38;53.35;101182.57;124911;1099;102542;-74
2022/05/10 01:21:19;;;;;;;7.90;3.55;;;;;;;14.35;52.85;101182.47;124830;1099;104195;-75
2022/05/10 01:24:29;;;;;;;9.80;4.47;;;;;;;14.29;52.75;101178.72;124446;1099;104198;-75
2022/05/10 01:27:33;;;;;;;10.70;4.53;;;;;;;14.21;52.79;101175.87;124334;1099;118532;-75
2022/05/10 01:30:11;;;;;;;7.60;3.90;;;;;;;14.15;52.89;101176.56;124327;1099;102881;-75
2022/05/10 01:35:43;;;;;;;8.40;4.60;;;;;;;14.08;52.94;101186.88;124465;1099;102519;-75
2022/05/10 01:38:28;;;;;;;7.43;4.30;;;;;;;14.05;52.16;101181.49;124808;1099;104214;-75
2022/05/10 01:41:10;;;;;;;10.50;4.10;;;;;;;14.00;52.94;101179.59;124372;1099;104291;-75
2022/05/10 01:43:47;;;;;;;9.80;4.43;;;;;;;13.97;52.46;101186.52;124772;1099;104201;-75
2022/05/10 01:46:26;;;;;;;9.73;4.57;;;;;;;13.92;52.66;101183.73;124531;1099;104213;-74
2022/05/10 01:49:04;;;;;;;9.97;4.97;;;;;;;13.88;52.20;101186.22;124259;1102;104214;-75
2022/05/10 01:51:43;;;;;;;9.83;4.60;;;;;;;13.83;52.75;101181.67;124313;1099;102847;-77
2022/05/10 01:54:38;;;;;;;10.33;4.50;;;;;;;13.82;52.10;101184.25;124286;1102;104153;-77
2022/05/10 01:57:12;;;;;;;8.13;3.90;;;;;;;13.78;52.40;101177.11;124139;1101;104208;-76
2022/05/10 01:59:49;;;;;;;12.03;4.67;;;;;;;13.73;51.91;101173.40;124827;1099;104262;-76
2022/05/10 02:02:23;;;;;;;10.43;4.60;;;;;;;13.70;52.66;101173.30;124293;1099;104610;-76
2022/05/10 02:04:59;;;;;;;11.63;4.97;;;;;;;13.62;52.78;101176.59;124858;1099;104149;-77
2022/05/10 02:07:34;;;;;;;9.90;4.90;;;;;;;13.57;52.06;101178.19;124388;1099;104191;-75
2022/05/10 02:10:10;;;;;;;9.37;4.23;;;;;;;13.52;52.39;101181.49;124263;1099;104277;-77
2022/05/10 02:12:45;;;;;;;12.57;4.90;;;;;;;13.53;52.10;101170.11;124270;1099;104331;-76
2022/05/10 02:15:22;;;;;;;12.07;5.10;;;;;;;13.53;52.89;101175.39;124320;1099;104278;-77
2022/05/10 02:17:58;;;;;;;12.23;4.90;;;;;;;13.52;52.38;101173.58;124840;1098;104288;-77
2022/05/10 02:20:35;;;;;;;12.17;4.47;;;;;;;13.53;52.05;101171.00;124962;1099;104182;-77
2022/05/10 02:23:10;;;;;;;9.70;4.77;;;;;;;13.54;52.37;101172.80;124349;1102;104846;-77
2022/05/10 02:25:44;;;;;;;10.43;5.23;;;;;;;13.54;52.52;101172.80;124343;1100;103268;-76
2022/05/10 02:28:20;;;;;;;12.47;4.85;;;;;;;13.53;52.61;101178.02;124269;1099;110350;-76
2022/05/10 02:30:59;;;;;;;10.67;4.77;;;;;;;13.49;52.81;101179.63;124326;1102;102918;-76
2022/05/10 02:33:32;;;;;;;12.07;5.30;;;;;;;13.49;52.88;101179.63;124242;1098;104303;-75
2022/05/10 02:36:05;;;;;;;12.60;4.97;;;;;;;13.46;53.07;101175.17;124269;1099;104163;-77
2022/05/10 02:38:39;;;;;;;10.95;5.12;;;;;;;13.44;52.81;101182.11;124809;1099;104191;-76
2022/05/10 02:41:13;;;;;;;11.70;5.47;;;;;;;13.40;52.89;101190.77;124827;1098;104224;-76
2022/05/10 02:43:50;;;;;;;15.17;5.70;;;;;;;13.38;52.90;101191.55;124837;1098;102251;-76
2022/05/10 02:46:22;;;;;;;15.77;5.80;;;;;;;13.40;53.10;101192.49;124805;1099;104188;-76
2022/05/10 02:48:54;;;;;;;16.37;6.37;;;;;;;13.35;53.07;101194.08;124261;1099;106920;-76
2022/05/10 02:51:25;;;;;;;18.30;5.50;;;;;;;13.33;53.65;101190.47;124339;1099;104374;-76
2022/05/10 02:53:57;;;;;;;14.57;5.40;;;;;;;13.31;53.27;101193.94;124295;1099;104183;-76
2022/05/10 02:56:31;;;;;;;16.23;5.53;;;;;;;13.29;53.51;101193.00;124319;1099;102825;-75
2022/05/10 02:59:07;;;;;;;14.47;5.77;;;;;;;13.21;53.48;101193.55;124342;1102;119250;-75
2022/05/10 03:01:46;;;;;;;15.13;5.90;;;;;;;13.11;53.77;101198.48;124779;1099;102331;-75
2022/05/10 03:04:19;;;;;;;11.33;5.73;;;;;;;13.03;53.77;101199.06;124910;1098;104179;-76
2022/05/10 03:06:51;;;;;;;15.13;6.00;;;;;;;12.94;54.06;101200.50;124786;1099;102902;-76
2022/05/10 03:09:24;;;;;;;12.93;5.90;;;;;;;12.91;53.73;101204.77;124286;1099;102787;-75
2022/05/10 03:11:55;;;;;;;13.10;5.97;;;;;;;12.86;53.82;101212.49;124297;1099;104217;-75
2022/05/10 03:14:27;;;;;;;10.83;5.40;;;;;;;12.81;53.77;101210.52;124272;1099;104268;-76
2022/05/10 03:16:59;;;;;;;10.77;5.57;;;;;;;12.72;53.78;101203.18;124273;1099;104191;-76
2022/05/10 03:19:32;;;;;;;12.83;5.67;;;;;;;12.67;53.84;101199.45;124295;1102;111093;-76
2022/05/10 03:22:07;;;;;;;13.43;5.60;;;;;;;12.63;54.01;101203.71;124354;1102;102401;-76
2022/05/10 03:24:39;;;;;;;11.67;5.57;;;;;;;12.62;54.11;101201.94;124294;1102;104365;-76
2022/05/10 03:27:12;;;;;;;14.73;6.30;;;;;;;12.62;54.03;101206.28;124797;1098;102637;-76
2022/05/10 03:29:47;;;;;;;10.97;6.07;;;;;;;12.60;54.16;101206.22;124281;1099;104201;-76
2022/05/10 03:32:17;;;;;;;;;;;;;;;12.58;53.87;101210.55;124339;1099;104188;-76
2022/05/10 03:34:58;;;;;;;16.27;6.67;;;;;;;12.60;54.26;101203.59;124295;1099;102586;-76
2022/05/10 03:37:31;;;;;;;17.20;6.70;;;;;;;12.70;54.31;101218.92;124350;1099;104166;-76
2022/05/10 03:40:04;;;;;;;17.60;5.72;;;;;;;12.80;54.41;101214.89;124270;1099;107888;-76
2022/05/10 03:42:42;;;;;;;15.63;6.33;;;;;;;12.90;54.32;101217.05;125294;1099;104255;-76
2022/05/10 03:45:14;;;;;;;12.73;6.33;;;;;;;12.93;54.17;101217.16;124337;1099;104171;-76
2022/05/10 03:47:47;;;;;;;14.70;6.00;;;;;;;12.99;54.44;101219.11;124318;1102;104309;-75
2022/05/10 03:50:21;;;;;;;11.93;6.30;;;;;;;13.06;54.55;101225.52;124326;1099;119048;-75
2022/05/10 03:52:53;;;;;;;18.73;6.40;;;;;;;13.06;54.34;101230.80;124256;1103;104268;-76
2022/05/10 03:55:27;;;;;;;15.10;6.57;;;;;;;13.05;54.01;101231.62;124317;1102;102915;-76
2022/05/10 03:57:59;;;;;;;15.30;6.50;;;;;;;13.06;54.21;101230.80;124270;1099;104166;-75
2022/05/10 04:00:31;;;;;;;16.77;6.70;;;;;;;13.03;54.42;101234.20;124280;1099;104235;-76
2022/05/10 04:03:03;;;;;;;15.90;6.73;;;;;;;13.01;54.72;101235.89;124267;1102;104157;-75
2022/05/10 04:05:36;;;;;;;19.90;7.60;;;;;;;13.02;54.46;101228.88;124324;1102;104185;-77
2022/05/10 04:08:09;;;;;;;16.57;7.20;;;;;;;13.01;54.33;101234.97;124305;1099;104331;-76
2022/05/10 04:10:43;;;;;;;14.47;6.85;;;;;;;13.02;54.34;101223.61;124263;1099;104669;-76
2022/05/10 04:13:15;;;;;;;19.25;7.22;;;;;;;13.03;54.51;101235.95;124335;1099;104241;-76
2022/05/10 04:15:49;;;;;;;23.43;8.00;;;;;;;13.05;54.42;101239.53;124328;1099;102758;-76
2022/05/10 04:18:21;;;;;;;16.45;7.00;;;;;;;13.08;54.40;101237.89;124383;1102;104194;-76
2022/05/10 04:20:54;;;;;;;16.40;7.77;;;;;;;13.13;54.67;101236.34;124374;1099;102226;-76
2022/05/10 04:23:26;;;;;;;18.07;7.53;;;;;;;13.19;54.45;101227.75;124458;1102;102836;-76
2022/05/10 04:26:02;;;;;;;21.57;7.93;;;;;;;13.22;54.51;101230.50;124296;1099;102139;-77
2022/05/10 04:28:34;;;;;;;18.55;8.30;;;;;;;13.22;54.38;101227.86;124267;1100;104245;-76
2022/05/10 04:31:07;;;;;;;17.20;8.83;;;;;;;13.19;54.67;101227.75;124255;1099;104341;-77
2022/05/10 04:33:39;;;;;;;17.83;8.10;;;;;;;13.21;54.46;101233.08;124382;1099;104166;-77
2022/05/10 04:36:13;;;;;;;16.67;8.23;;;;;;;13.21;54.76;101228.70;124319;1102;104150;-77
2022/05/10 04:38:48;;;;;;;17.43;8.40;;;;;;;13.29;54.64;101240.44;124423;1102;104283;-77
2022/05/10 04:41:26;;;;;;;22.27;8.73;;;;;;;13.31;54.31;101233.47;124319;1099;118944;-78
2022/05/10 04:44:01;;;;;;;19.50;7.60;;;;;;;13.34;54.49;101243.28;124376;1102;104322;-78
2022/05/10 04:46:35;;;;;;;20.87;7.33;;;;;;;13.39;54.10;101240.80;124901;1099;102035;-77
2022/05/10 04:49:06;;;;;;;;;;;;;;;13.45;54.05;101251.58;124461;1099;102335;-76
2022/05/10 04:51:39;;;;;;;14.23;6.70;;;;;;;13.51;54.20;101246.52;124419;1099;104246;-77
2022/05/10 04:54:14;;;;;;;16.13;6.63;;;;;;;13.56;54.13;101250.20;125305;1099;104258;-76
2022/05/10 04:56:48;;;;;;;16.50;7.17;;;;;;;13.61;53.96;101248.62;125230;1102;102447;-76
2022/05/10 04:59:20;;;;;;;12.85;6.55;;;;;;;13.71;53.61;101251.58;124476;1102;104163;-75
2022/05/10 05:01:52;;;;;;;;;;;;;;;13.76;53.31;101255.27;124324;1099;102658;-77
2022/05/10 05:04:26;;;;;;;13.17;5.70;;;;;;;13.81;52.77;101257.23;124335;1102;102719;-77
2022/05/10 05:06:57;;;;;;;14.37;5.90;;;;;;;13.90;52.91;101247.83;124344;1099;104300;-76
2022/05/10 05:09:29;;;;;;;18.93;6.37;;;;;;;14.01;52.48;101250.00;124363;1102;102865;-76
2022/05/10 05:12:04;;;;;;;14.87;6.10;;;;;;;14.12;52.13;101253.00;125040;1102;104274;-76
2022/05/10 05:14:37;;;;;;;14.70;5.83;;;;;;;14.20;51.76;101250.61;125093;1099;104232;-77
2022/05/10 05:17:28;;;;;;;15.37;6.33;;;;;;;14.26;51.47;101244.61;125023;1099;104162;-76
2022/05/10 05:20:01;;;;;;;12.47;6.10;;;;;;;14.34;51.98;101251.95;125035;1099;104301;-77
2022/05/10 05:22:34;;;;;;;16.83;6.40;;;;;;;14.46;51.22;101253.18;124374;1099;104153;-76
2022/05/10 05:25:08;;;;;;;11.23;5.80;;;;;;;14.54;51.29;101259.63;124492;1102;102790;-76
2022/05/10 05:27:38;;;;;;;;;;;;;;;14.55;49.32;101253.48;124441;1098;102404;-77
2022/05/10 05:30:13;;;;;;;13.60;5.20;;;;;;;14.63;51.32;101252.03;124494;1102;102122;-78
2022/05/10 05:32:44;;;;;;;12.30;5.93;;;;;;;14.71;50.18;101252.27;124564;1102;121079;-78
2022/05/10 05:35:16;;;;;;;17.77;6.43;;;;;;;14.76;50.02;101247.09;124522;1100;102324;-78
2022/05/10 05:37:50;;;;;;;12.53;5.73;;;;;;;14.82;50.11;101252.56;125075;1099;104197;-77
2022/05/10 05:40:25;;;;;;;11.93;5.37;;;;;;;14.85;48.88;101252.66;125097;1099;104198;-77
2022/05/10 05:42:57;;;;;;;11.12;5.15;;;;;;;14.90;49.03;101246.67;125841;1099;103277;-78
2022/05/10 05:45:30;;;;;;;12.77;5.30;;;;;;;14.97;49.03;101253.02;125227;1099;102273;-78
2022/05/10 05:48:06;;;;;;;14.23;5.10;;;;;;;15.04;47.52;101260.30;124824;1099;102120;-77
2022/05/10 05:50:46;;;;;;;14.40;5.53;;;;;;;15.12;48.13;101247.31;124500;1102;104223;-77
2022/05/10 05:53:27;;;;;;;14.68;6.67;;;;;;;15.24;48.55;101250.30;124396;1099;110133;-79
2022/05/10 05:56:15;;;;;;;13.43;5.00;;;;;;;15.32;47.17;101244.32;124582;1099;104185;-79
2022/05/10 05:58:54;;;;;;;11.07;5.13;;;;;;;15.42;47.61;101254.31;124590;1099;104319;-79
2022/05/10 06:01:28;;;;;;;12.27;4.90;;;;;;;15.50;46.38;101251.88;124624;1099;104220;-79
2022/05/10 06:04:02;;;;;;;12.10;4.63;;;;;;;15.54;46.01;101253.77;125856;1099;105012;-79
2022/05/10 06:06:35;;;;;;;11.03;5.05;;;;;;;15.59;46.13;101257.42;124453;1102;104211;-78
2022/05/10 06:09:09;;;;;;;13.72;4.65;;;;;;;15.66;46.16;101256.75;125116;1099;104214;-78
2022/05/10 06:11:49;;;;;;;10.93;4.30;;;;;;;15.74;45.98;101244.61;124927;1099;104226;-78
2022/05/10 06:14:27;;;;;;;10.43;4.60;;;;;;;15.86;46.12;101254.64;124690;1102;102462;-77
2022/05/10 06:17:02;;;;;;;11.07;4.50;;;;;;;15.91;45.27;101246.82;124567;1103;103261;-76
2022/05/10 06:19:38;;;;;;;8.43;4.33;;;;;;;15.97;45.00;101244.33;124441;1099;102778;-77
2022/05/10 06:22:24;;;;;;;9.57;4.17;;;;;;;16.01;45.35;101247.97;124590;1102;102512;-77
2022/05/10 06:25:01;;;;;;;11.93;4.10;;;;;;;15.99;43.04;101251.47;124673;1102;104287;-76
2022/05/10 06:27:35;;;;;;;15.80;4.57;;;;;;;16.06;44.13;101247.21;125048;1099;104171;-77
2022/05/10 06:30:16;;;;;;;10.53;4.60;;;;;;;16.14;44.53;101245.67;125277;1101;105195;-78
2022/05/10 06:32:54;;;;;;;10.30;4.23;;;;;;;16.26;44.08;101255.66;125165;1102;102632;-78
2022/05/10 06:35:28;;;;;;;10.73;4.23;;;;;;;16.32;42.30;101254.92;124952;1102;104185;-78
2022/05/10 06:38:19;;;;;;;9.47;4.20;;;;;;;16.33;42.54;101257.61;124647;1103;104262;-77
2022/05/10 06:41:03;;;;;;;11.33;4.17;;;;;;;16.38;42.23;101254.15;124267;1102;102501;-78
2022/05/10 06:43:43;;;;;;;9.10;4.30;;;;;;;16.47;43.09;101247.34;124662;1099;102532;-78
2022/05/10 06:46:32;;;;;;;8.63;4.20;;;;;;;16.59;42.94;101251.13;125687;1099;104146;-78
2022/05/10 06:49:09;;;;;;;11.20;4.80;;;;;;;16.77;43.15;101250.66;125100;1099;102860;-77
2022/05/10 06:51:48;;;;;;;10.03;4.27;;;;;;;16.86;41.93;101254.44;125796;1099;104272;-79
2022/05/10 06:54:26;;;;;;;;;;;;;;;16.93;39.33;101244.84;125773;1099;108754;-76
2022/05/10 06:57:04;;;;;;;12.20;4.13;;;;;;;17.07;41.52;101240.72;125716;1099;104341;-77
2022/05/10 06:59:50;;;;;;;9.37;4.10;;;;;;;17.23;41.21;101239.31;126015;1099;102441;-77
2022/05/10 07:02:31;;;;;;;10.67;4.40;;;;;;;17.41;40.76;101244.06;125679;1099;102695;-76
2022/05/10 07:08:20;;;;;;;10.93;4.10;;;;;;;17.79;40.82;101243.91;125124;1099;101907;-77
2022/05/10 07:11:25;;;;;;;8.40;4.00;;;;;;;17.96;40.75;101238.89;125719;1097;102240;-79
2022/05/10 07:14:39;;;;;;;11.50;4.43;;;;;;;18.15;39.82;101247.17;125626;1099;104185;-77
2022/05/10 07:17:17;;;;;;;;;;;;;;;18.20;36.79;101241.94;125792;1099;104233;-77
2022/05/10 07:19:50;;;;;;;11.38;4.35;;;;;;;18.36;39.48;101232.47;125785;1099;104763;-78
2022/05/10 07:22:41;;;;;;;;;;;;;;;;;;;;;
2022/05/10 07:25:28;;;;;;;13.77;4.70;;;;;;;18.65;38.79;101232.88;125741;1099;104171;-77
2022/05/10 07:28:29;;;;;;;12.40;5.20;;;;;;;18.88;38.97;101235.00;125836;1099;104102;-78
2022/05/10 07:31:10;;;;;;;11.00;4.90;;;;;;;19.09;38.74;101237.03;125889;1099;104187;-77
2022/05/10 07:33:45;;;;;;;16.80;5.03;;;;;;;19.24;38.70;101236.34;125756;1099;104192;-76
2022/05/10 07:36:33;;;;;;;11.50;4.93;;;;;;;19.37;38.51;101241.82;125635;1098;102586;-77
2022/05/10 07:39:35;;;;;;;14.57;5.20;;;;;;;19.51;37.15;101238.40;125827;1099;102231;-80
2022/05/10 07:42:09;;;;;;;10.23;4.70;;;;;;;19.65;36.75;101234.13;125638;1099;102752;-78
2022/05/10 07:44:52;;;;;;;11.57;5.10;;;;;;;19.82;37.01;101231.67;125817;1099;104711;-79
2022/05/10 07:47:34;;;;;;;9.30;4.57;;;;;;;19.89;36.93;101227.28;125756;1099;103617;-78
2022/05/10 07:50:42;;;;;;;;;;;;;;;;;;;;;
2022/05/10 07:53:31;;;;;;;12.50;4.95;;;;;;;20.19;35.79;101221.30;125959;1099;102468;-79
2022/05/10 07:56:12;;;;;;;7.93;4.00;;;;;;;20.39;35.25;101228.56;125868;1099;110506;-78
2022/05/10 08:01:58;;;;;;;6.40;3.20;;;;;;;20.60;34.66;101234.03;125987;1099;102339;-79
2022/05/10 08:04:47;;;;;;;6.77;3.20;;;;;;;20.73;34.53;101234.14;125747;1099;104172;-79
2022/05/10 08:07:25;;;;;;;12.20;2.90;;;;;;;20.83;32.93;101226.20;126157;1099;102110;-78
2022/05/10 08:10:13;;;;;;;10.73;3.40;;;;;;;20.85;32.73;101222.63;126160;1099;103251;-78
2022/05/10 08:12:59;;;;;;;7.27;3.30;;;;;;;20.91;33.08;101217.32;125793;1099;104208;-79
2022/05/10 08:15:32;;;;;;;;;;;;;;;21.09;31.22;101217.41;125783;1099;104159;-79
2022/05/10 08:18:21;;;;;;;9.70;3.08;;;;;;;21.26;31.79;101224.59;125775;1099;104156;-79
2022/05/10 08:20:58;;;;;;;11.13;3.17;;;;;;;21.32;31.28;101222.81;125941;1097;104221;-81
2022/05/10 08:23:40;;;;;;;6.23;2.77;;;;;;;21.23;31.30;101220.12;125898;1098;104185;-79
2022/05/10 08:26:16;;;;;;;5.80;3.10;;;;;;;21.04;31.14;101224.50;126079;1099;104217;-79
2022/05/10 08:28:50;;;;;;;5.83;3.03;;;;;;;21.08;30.36;101220.94;125802;1096;104307;-79
2022/05/10 08:31:33;;;;;;;8.53;2.53;;;;;;;21.10;29.60;101216.53;125969;1099;102573;-79
2022/05/10 08:34:28;;;;;;;8.10;2.90;;;;;;;21.24;29.68;101213.91;125867;1099;102643;-78
2022/05/10 08:37:06;;;;;;;5.90;3.00;;;;;;;21.18;30.23;101216.55;125928;1099;102403;-78
2022/05/10 08:39:50;;;;;;;10.13;3.10;;;;;;;21.31;31.12;101217.47;125862;1099;104166;-78
2022/05/10 08:42:33;;;;;;;8.17;2.60;;;;;;;21.43;28.17;101214.84;125720;1099;102839;-77
2022/05/10 08:45:13;;;;;;;4.73;2.17;;;;;;;21.43;28.93;101205.95;125727;1099;104159;-79
2022/05/10 08:47:49;;;;;;;7.45;2.70;;;;;;;21.48;28.79;101210.39;125709;1099;102803;-79
2022/05/10 08:50:24;;;;;;;7.90;2.73;;;;;;;21.50;28.33;101202.42;125759;1099;104159;-78
2022/05/10 08:53:01;;;;;;;7.33;2.43;;;;;;;21.50;26.98;101214.02;125675;1099;104036;-78
2022/05/10 08:55:47;;;;;;;6.87;2.63;;;;;;;21.33;27.90;101218.36;124882;1096;104226;-76
2022/05/10 08:58:54;;;;;;;5.57;2.50;;;;;;;21.24;27.43;101210.32;125806;1099;104188;-79
2022/05/10 09:01:33;;;;;;;4.27;2.50;;;;;;;21.31;27.50;101204.13;125762;1099;104152;-78
2022/05/10 09:04:16;;;;;;;5.37;2.50;;;;;;;21.45;27.88;101197.03;125770;1098;104256;-78
2022/05/10 09:07:01;;;;;;;9.53;3.00;;;;;;;21.57;28.04;101198.00;125704;1099;104163;-78
2022/05/10 09:10:07;;;;;;;4.83;2.50;;;;;;;21.63;26.44;101195.30;125758;1099;104261;-78
2022/05/10 09:13:00;;;;;;;6.47;2.23;;;;;;;21.64;26.41;101199.77;126658;1098;102347;-79
2022/05/10 09:15:40;;;;;;;3.30;2.20;;;;;;;21.60;26.37;101200.64;126144;1099;104083;-80
2022/05/10 09:18:40;;;;;;;3.27;2.20;;;;;;;21.66;26.56;101196.22;126220;1099;104259;-79
2022/05/10 09:21:21;;;;;;;3.25;2.20;;;;;;;21.77;26.95;101193.56;125950;1097;104176;-80
2022/05/10 09:24:12;;;;;;;5.63;2.57;;;;;;;21.83;26.84;101188.22;125762;1099;104252;-79
2022/05/10 09:27:09;;;;;;;7.10;2.67;;;;;;;21.71;25.94;101191.77;125983;1099;102912;-78
2022/05/10 09:29:56;;;;;;;6.97;2.40;;;;;;;21.53;26.06;101181.98;125953;1099;104155;-78
2022/05/10 09:35:55;;;;;;;6.43;2.80;;;;;;;21.71;25.56;101185.55;125947;1099;104191;-79
2022/05/10 09:38:29;;;;;;;5.27;2.73;;;;;;;21.70;26.83;101175.73;125857;1098;117708;-78
2022/05/10 09:41:49;;;;;;;7.83;2.60;;;;;;;21.64;25.12;101170.39;125919;1099;104444;-77
2022/05/10 09:44:33;;;;;;;8.37;2.60;;;;;;;21.44;25.06;101181.02;126458;1099;102387;-80
2022/05/10 09:47:23;;;;;;;6.93;2.73;;;;;;;21.30;25.55;101172.97;126124;1099;104185;-79
2022/05/10 09:50:15;;;;;;;6.63;2.63;;;;;;;21.31;26.17;101172.98;125826;1099;104222;-79
2022/05/10 09:52:49;;;;;;;6.43;2.73;;;;;;;21.33;26.38;101164.98;125695;1096;104210;-79
2022/05/10 09:55:34;;;;;;;5.70;2.73;;;;;;;21.33;25.71;101163.22;125808;1099;104197;-79
2022/05/10 09:58:18;;;;;;;6.10;2.25;;;;;;;21.27;25.78;101164.96;125836;1099;104054;-79
2022/05/10 10:00:53;;;;;;;8.17;2.70;;;;;;;21.27;24.85;101156.95;126011;1099;104222;-78
2022/05/10 10:03:29;;;;;;;2.90;2.30;;;;;;;21.29;25.92;101157.88;125087;1098;104201;-79
2022/05/10 10:06:19;;;;;;;7.73;2.70;;;;;;;21.33;25.70;101147.20;125835;1098;102188;-78
2022/05/10 10:08:55;;;;;;;5.87;2.40;;;;;;;21.46;26.23;101145.43;125904;1099;104214;-76
2022/05/10 10:11:45;;;;;;;7.60;2.70;;;;;;;21.54;26.14;101140.13;125114;1099;104147;-75
2022/05/10 10:15:05;;;;;;;10.10;2.43;;;;;;;21.62;26.22;101138.34;125965;1096;104229;-80
2022/05/10 10:17:50;;;;;;;6.67;2.70;;;;;;;21.60;25.97;101141.89;126160;1099;102778;-77
2022/05/10 10:20:35;;;;;;;5.70;2.70;;;;;;;21.53;26.02;101128.58;125265;1099;102726;-77
2022/05/10 10:23:25;;;;;;;9.40;2.90;;;;;;;21.60;25.34;101133.88;125186;1099;104245;-78
2022/05/10 10:26:00;;;;;;;6.67;2.70;;;;;;;21.63;25.73;101131.22;125081;1099;102332;-77
2022/05/10 10:28:52;;;;;;;8.00;2.73;;;;;;;21.72;26.34;101133.89;125847;1099;104395;-77
2022/05/10 10:31:36;;;;;;;7.33;2.50;;;;;;;21.75;25.30;101128.55;125129;1099;102366;-77
2022/05/10 10:34:21;;;;;;;6.00;2.50;;;;;;;21.79;25.57;101118.77;124982;1099;102356;-77
2022/05/10 10:37:01;;;;;;;7.30;2.80;;;;;;;21.77;25.23;101125.88;125030;1099;104341;-78
2022/05/10 10:39:44;;;;;;;5.03;2.70;;;;;;;21.76;25.54;101119.66;125954;1097;104264;-78
2022/05/10 10:42:38;;;;;;;4.67;2.73;;;;;;;21.85;25.99;101108.96;125097;1099;104153;-77
2022/05/10 10:45:32;;;;;;;8.93;2.37;;;;;;;22.00;26.09;101107.15;125991;1099;102321;-77
2022/05/10 10:48:27;;;;;;;7.90;2.67;;;;;;;22.07;26.20;101107.14;125440;1099;103052;-78
2022/05/10 10:51:11;;;;;;;4.33;2.63;;;;;;;21.94;25.37;101107.16;126136;1096;102379;-78
2022/05/10 10:53:59;;;;;;;4.43;2.40;;;;;;;21.63;25.29;101102.75;125944;1097;102824;-78
2022/05/10 10:56:50;;;;;;;6.67;2.40;;;;;;;21.59;25.23;101100.96;125937;1099;104162;-76
2022/05/10 10:59:58;;;;;;;4.13;2.10;;;;;;;21.56;24.85;101087.61;125185;1099;102320;-76
2022/05/10 11:02:56;;;;;;;4.03;2.37;;;;;;;21.54;24.89;101092.95;125112;1099;104163;-76
2022/05/10 11:06:08;;;;;;;3.87;2.20;;;;;;;21.52;24.44;101099.20;125049;1099;103417;-76
2022/05/10 11:09:14;;;;;;;10.47;2.53;;;;;;;21.56;24.67;101078.72;125302;1099;104327;-77
2022/05/10 11:12:04;;;;;;;7.53;3.03;;;;;;;21.71;25.47;101082.27;125657;1099;104188;-77
2022/05/10 11:15:01;;;;;;;7.90;2.45;;;;;;;21.96;24.88;101084.91;126005;1099;104178;-77
2022/05/10 11:17:44;;;;;;;4.53;2.30;;;;;;;21.94;24.06;101084.03;125646;1099;104303;-77
2022/05/10 11:20:32;;;;;;;4.78;2.60;;;;;;;21.89;24.94;101073.34;124932;1097;104212;-78
2022/05/10 11:23:32;;;;;;;3.77;2.40;;;;;;;21.87;23.93;101075.11;125031;1099;102418;-77
2022/05/10 11:26:23;;;;;;;5.07;2.30;;;;;;;21.86;23.89;101062.67;125696;1099;104188;-77
2022/05/10 11:33:00;;;;;;;3.70;2.27;;;;;;;21.77;23.37;101061.77;125140;1099;104214;-78
2022/05/10 11:39:09;;;;;;;4.53;2.40;;;;;;;21.80;24.33;101067.11;125175;1099;104332;-77
2022/05/10 11:41:55;;;;;;;5.50;2.40;;;;;;;21.88;24.46;101058.20;124941;1099;109877;-77
2022/05/10 11:44:56;;;;;;;4.07;2.47;;;;;;;21.88;23.24;101057.32;124417;1099;104242;-78
2022/05/10 11:47:48;;;;;;;6.80;2.30;;;;;;;21.83;23.63;101046.64;124513;1099;102492;-77
2022/05/10 11:50:37;;;;;;;3.53;2.57;;;;;;;21.82;23.73;101044.85;125196;1099;104251;-77
2022/05/10 11:53:41;;;;;;;6.97;2.40;;;;;;;21.87;23.51;101047.52;125657;1099;104163;-78
2022/05/10 11:56:24;;;;;;;4.90;2.50;;;;;;;21.90;23.64;101028.81;125210;1099;102439;-77
2022/05/10 11:58:58;;;;;;;4.27;2.23;;;;;;;21.98;23.95;101021.66;125667;1099;104146;-78
2022/05/10 12:01:48;;;;;;;4.60;2.33;;;;;;;22.06;23.79;101024.30;125050;1099;102839;-79
2022/05/10 12:04:42;;;;;;;7.67;2.30;;;;;;;22.17;24.18;101024.27;124324;1099;104341;-78
2022/05/10 12:07:44;;;;;;;6.07;2.67;;;;;;;22.29;24.58;101018.88;125127;1098;103909;-79
2022/05/10 12:10:55;;;;;;;4.53;2.30;;;;;;;22.23;23.06;101019.77;125286;1102;104179;-79
2022/05/10 12:24:06;;;;;;;6.10;2.53;;;;;;;22.06;22.60;100990.47;125042;1102;104185;-80
2022/05/10 12:26:48;;;;;;;6.73;2.87;;;;;;;22.12;22.61;100989.53;125255;1102;104360;-80
2022/05/10 12:29:56;;;;;;;;;;;;;;;22.15;23.22;100977.95;125756;1099;102417;-80
2022/05/10 12:32:58;;;;;;;4.63;2.40;;;;;;;22.04;22.86;100978.88;125175;1099;102806;-80
2022/05/10 12:36:16;;;;;;;6.40;2.80;;;;;;;22.04;23.45;100986.89;125175;1099;102083;-80
2022/05/10 12:39:25;;;;;;;5.67;2.70;;;;;;;21.94;23.11;100970.91;125195;1099;104169;-79
2022/05/10 12:42:16;;;;;;;6.73;2.60;;;;;;;21.99;23.14;100961.11;125342;1102;102290;-79